Airfield :
LOGIN :

Register | Disclaimer

   EN    FR    IT 

 










Legend :    VFR   Marginal VFR   IFR   Intensive IFR   Very Intensive IFR
Visi :
Ceiling :
>= 8 km
>= 3000ft
5 to 8 km
1000 to 3000 ft
1500m to 5 km
500 to 1000 ft
800 to 1500m
200 to 500 ft
< 800m
< 200 ft
Symbols :   Thunderstorms  Fog  Heavy snow  Heavy precipitations  Wind > 20 kt
SIGMETs :     Misc.  Thunderstorms  Icing  Turbulence  Mountain Waves  Volcanic Ashes







- Airport Elevation : 302 ft
- IATA code : CGN


EDDK - Cologne Bonn

CURRENT METAR :
  • 220022Z 21008KT 170V230 3500 +TSRA BKN048CB 19/15 Q1011 TEMPO 2500

EXPIRED METARs :
  • 220011Z VRB02KT 9999 -SHRA VCTS FEW060CB SCT110 OVC160 19/14 Q1010 TEMPO 4500 TSRA
  • 220003Z VRB01KT 9999 VCSH FEW060CB SCT110 OVC160 18/15 Q1010 TEMPO SHRA
  • 212350Z VRB02KT CAVOK 19/15 Q1010 NOSIG
  • 212320Z 16004KT CAVOK 18/15 Q1010 NOSIG
  • 212250Z 11003KT 060V170 CAVOK 20/14 Q1010 NOSIG
  • 212220Z 09004KT 060V120 CAVOK 21/14 Q1010 NOSIG
  • 212150Z 10003KT 060V140 CAVOK 20/14 Q1010 NOSIG

TAF AMD TAF EDDK
Valid from the 22 at 00:00 until the 23 at 06:00 UTC


220025Z 2200/2306 12005KT CAVOK
TEMPO 2200/2205 VRB03KT
PROB40
TEMPO 2200/2203 21015G35KT 2000 TSRA BKN030CB
BECMG 2207/2210 18008KT
PROB30
TEMPO 2213/2218 20015G25KT TSRA BKN050CB
TEMPO 2222/2306 SHRA SCT014 BKN020TCU
No reported NOTAMs for that airfield.
1 SIGMET reported for the Langen FIR (EDGG) :
 
Embedded thunderstorms
EDGG SIGMET 4 VALID 212300/220100 EDZF
EDGG LANGEN FIR EMBD TS OBS WI N5035 E00907 - N4940 E01048 - N4845 E00949 - N4936 E00818 - N4940 E00640 - N5021 E00650 - N5035 E00907 TOP FL400 MOV NE NC=



MET'MAP, your aeronautical weather chart ! - Copyright ORBIFLY December 2007 - Disclaimer

ORBIFLY MET'MAP TEAM :

Programming & Development : Alexandra Zaïnal
Concept & Development : Baudouin d'Aumeries
Co-Development & Prog : Marc-Olivier Méhu
Technical & hardware support : Manuel Goepfert

Contact : metmap@orbifly.com




SOURCES & CREDITS :

   NOAA